sensor_id;sensor_type;location;lat;lon;timestamp;temperature;humidity
14737;DHT22;7459;53.590;10.062;2023-11-19T11:15:44;10.30;99.90
14737;DHT22;7459;53.590;10.062;2023-11-19T11:18:12;10.30;99.90
14737;DHT22;7459;53.590;10.062;2023-11-19T11:20:39;10.30;99.90
14737;DHT22;7459;53.590;10.062;2023-11-19T11:26:35;10.30;99.90
14737;DHT22;7459;53.590;10.062;2023-11-19T11:29:37;10.30;99.90
14737;DHT22;7459;53.590;10.062;2023-11-19T11:35:45;10.30;99.90
14737;DHT22;7459;53.590;10.062;2023-11-19T11:38:22;10.40;99.90
14737;DHT22;7459;53.590;10.062;2023-11-19T11:43:52;10.40;99.90
14737;DHT22;7459;53.590;10.062;2023-11-19T11:49:02;10.40;99.90
14737;DHT22;7459;53.590;10.062;2023-11-19T11:57:13;10.50;99.90
14737;DHT22;7459;53.590;10.062;2023-11-19T11:59:46;10.40;99.90
14737;DHT22;7459;53.590;10.062;2023-11-19T12:02:21;10.40;99.90
14737;DHT22;7459;53.590;10.062;2023-11-19T12:04:49;10.40;99.90
14737;DHT22;7459;53.590;10.062;2023-11-19T12:07:21;10.30;99.90
14737;DHT22;7459;53.590;10.062;2023-11-19T12:10:07;10.30;99.90
14737;DHT22;7459;53.590;10.062;2023-11-19T12:12:34;10.30;99.90
14737;DHT22;7459;53.590;10.062;2023-11-19T12:15:08;10.30;99.90
14737;DHT22;7459;53.590;10.062;2023-11-19T12:17:47;10.30;99.90
14737;DHT22;7459;53.590;10.062;2023-11-19T12:20:22;10.40;99.90
14737;DHT22;7459;53.590;10.062;2023-11-19T12:22:49;10.40;99.90
14737;DHT22;7459;53.590;10.062;2023-11-19T12:25:17;10.40;99.90
14737;DHT22;7459;53.590;10.062;2023-11-19T12:27:45;10.40;99.90
14737;DHT22;7459;53.590;10.062;2023-11-19T12:30:23;10.50;99.90
14737;DHT22;7459;53.590;10.062;2023-11-19T12:32:52;10.50;99.90
14737;DHT22;7459;53.590;10.062;2023-11-19T12:35:19;10.50;99.90
14737;DHT22;7459;53.590;10.062;2023-11-19T12:37:49;10.50;99.90
14737;DHT22;7459;53.590;10.062;2023-11-19T12:40:19;10.60;99.90
14737;DHT22;7459;53.590;10.062;2023-11-19T12:42:47;10.60;99.90
14737;DHT22;7459;53.590;10.062;2023-11-19T12:45:14;10.60;99.90
14737;DHT22;7459;53.590;10.062;2023-11-19T12:47:45;10.60;99.90
14737;DHT22;7459;53.590;10.062;2023-11-19T12:50:15;10.60;99.90
14737;DHT22;7459;53.590;10.062;2023-11-19T12:52:55;10.60;99.90
14737;DHT22;7459;53.590;10.062;2023-11-19T12:55:28;10.60;99.90
14737;DHT22;7459;53.590;10.062;2023-11-19T12:57:55;10.60;99.90
14737;DHT22;7459;53.590;10.062;2023-11-19T13:00:22;10.60;99.90
14737;DHT22;7459;53.590;10.062;2023-11-19T13:02:51;10.60;99.90
14737;DHT22;7459;53.590;10.062;2023-11-19T13:05:29;10.60;99.90
14737;DHT22;7459;53.590;10.062;2023-11-19T13:08:08;10.60;99.90
14737;DHT22;7459;53.590;10.062;2023-11-19T13:10:53;10.60;99.90
14737;DHT22;7459;53.590;10.062;2023-11-19T13:13:19;10.70;99.90
14737;DHT22;7459;53.590;10.062;2023-11-19T13:15:45;10.70;99.90
14737;DHT22;7459;53.590;10.062;2023-11-19T13:18:11;10.60;99.90
14737;DHT22;7459;53.590;10.062;2023-11-19T13:20:37;10.70;99.90
14737;DHT22;7459;53.590;10.062;2023-11-19T13:23:05;10.60;99.90
14737;DHT22;7459;53.590;10.062;2023-11-19T13:25:32;10.70;99.90
14737;DHT22;7459;53.590;10.062;2023-11-19T13:27:58;10.70;99.90
14737;DHT22;7459;53.590;10.062;2023-11-19T13:30:25;10.70;99.90
14737;DHT22;7459;53.590;10.062;2023-11-19T13:32:52;10.70;99.90
14737;DHT22;7459;53.590;10.062;2023-11-19T13:35:20;10.70;99.90
14737;DHT22;7459;53.590;10.062;2023-11-19T13:37:46;10.70;99.90
14737;DHT22;7459;53.590;10.062;2023-11-19T13:40:12;10.60;99.90
14737;DHT22;7459;53.590;10.062;2023-11-19T13:42:43;10.70;99.90
14737;DHT22;7459;53.590;10.062;2023-11-19T13:45:13;10.60;99.90
14737;DHT22;7459;53.590;10.062;2023-11-19T13:47:42;10.60;99.90
14737;DHT22;7459;53.590;10.062;2023-11-19T13:50:13;10.70;99.90
14737;DHT22;7459;53.590;10.062;2023-11-19T13:52:41;10.70;99.90
14737;DHT22;7459;53.590;10.062;2023-11-19T13:55:09;10.60;99.90
14737;DHT22;7459;53.590;10.062;2023-11-19T13:57:36;10.70;99.90
14737;DHT22;7459;53.590;10.062;2023-11-19T14:00:10;10.60;99.90
14737;DHT22;7459;53.590;10.062;2023-11-19T14:02:42;10.60;99.90
14737;DHT22;7459;53.590;10.062;2023-11-19T14:05:09;10.70;99.90
14737;DHT22;7459;53.590;10.062;2023-11-19T14:07:36;10.70;99.90
14737;DHT22;7459;53.590;10.062;2023-11-19T14:10:02;10.60;99.90
14737;DHT22;7459;53.590;10.062;2023-11-19T14:12:28;10.60;99.90
14737;DHT22;7459;53.590;10.062;2023-11-19T14:14:54;10.60;99.90
14737;DHT22;7459;53.590;10.062;2023-11-19T14:17:20;10.60;99.90
14737;DHT22;7459;53.590;10.062;2023-11-19T14:19:46;10.60;99.90
14737;DHT22;7459;53.590;10.062;2023-11-19T14:22:11;10.60;99.90
14737;DHT22;7459;53.590;10.062;2023-11-19T14:24:37;10.60;99.90
14737;DHT22;7459;53.590;10.062;2023-11-19T14:27:03;10.60;99.90
14737;DHT22;7459;53.590;10.062;2023-11-19T14:29:29;10.60;99.90
14737;DHT22;7459;53.590;10.062;2023-11-19T14:31:56;10.70;99.90
14737;DHT22;7459;53.590;10.062;2023-11-19T14:34:22;10.70;99.90
14737;DHT22;7459;53.590;10.062;2023-11-19T14:36:48;10.70;99.90
14737;DHT22;7459;53.590;10.062;2023-11-19T14:39:14;10.70;99.90
14737;DHT22;7459;53.590;10.062;2023-11-19T14:41:40;10.60;99.90
14737;DHT22;7459;53.590;10.062;2023-11-19T14:44:06;10.60;99.90
14737;DHT22;7459;53.590;10.062;2023-11-19T14:46:31;10.60;99.90
14737;DHT22;7459;53.590;10.062;2023-11-19T14:48:57;10.50;99.90
14737;DHT22;7459;53.590;10.062;2023-11-19T14:51:24;10.50;99.90
14737;DHT22;7459;53.590;10.062;2023-11-19T14:53:49;10.50;99.90
14737;DHT22;7459;53.590;10.062;2023-11-19T14:56:15;10.40;99.90
14737;DHT22;7459;53.590;10.062;2023-11-19T14:58:41;10.40;99.90
14737;DHT22;7459;53.590;10.062;2023-11-19T15:01:11;10.40;99.90
14737;DHT22;7459;53.590;10.062;2023-11-19T15:03:37;10.30;99.90
14737;DHT22;7459;53.590;10.062;2023-11-19T15:06:03;10.30;99.90
14737;DHT22;7459;53.590;10.062;2023-11-19T15:08:28;10.20;99.90
14737;DHT22;7459;53.590;10.062;2023-11-19T15:10:55;10.10;99.90
14737;DHT22;7459;53.590;10.062;2023-11-19T15:13:23;10.00;99.90
14737;DHT22;7459;53.590;10.062;2023-11-19T15:15:49;9.90;99.90
14737;DHT22;7459;53.590;10.062;2023-11-19T15:18:15;9.90;99.90
14737;DHT22;7459;53.590;10.062;2023-11-19T15:20:42;9.90;99.90
14737;DHT22;7459;53.590;10.062;2023-11-19T15:23:12;9.80;99.90
14737;DHT22;7459;53.590;10.062;2023-11-19T15:25:38;9.80;99.90
14737;DHT22;7459;53.590;10.062;2023-11-19T15:28:04;9.80;99.90
14737;DHT22;7459;53.590;10.062;2023-11-19T15:30:30;9.70;99.90
14737;DHT22;7459;53.590;10.062;2023-11-19T15:32:56;9.60;99.90
14737;DHT22;7459;53.590;10.062;2023-11-19T15:35:21;9.60;99.90
14737;DHT22;7459;53.590;10.062;2023-11-19T15:37:47;9.60;99.90
14737;DHT22;7459;53.590;10.062;2023-11-19T15:40:13;9.60;99.90
14737;DHT22;7459;53.590;10.062;2023-11-19T15:42:39;9.60;99.90
14737;DHT22;7459;53.590;10.062;2023-11-19T15:45:06;9.60;99.90
14737;DHT22;7459;53.590;10.062;2023-11-19T15:47:33;9.70;99.90
14737;DHT22;7459;53.590;10.062;2023-11-19T15:50:01;9.70;99.90
14737;DHT22;7459;53.590;10.062;2023-11-19T15:52:28;9.70;99.90
14737;DHT22;7459;53.590;10.062;2023-11-19T15:54:55;9.70;99.90
14737;DHT22;7459;53.590;10.062;2023-11-19T15:57:21;9.80;99.90
14737;DHT22;7459;53.590;10.062;2023-11-19T15:59:47;9.80;99.90
14737;DHT22;7459;53.590;10.062;2023-11-19T16:02:16;9.80;99.90
14737;DHT22;7459;53.590;10.062;2023-11-19T16:04:42;9.80;99.90
14737;DHT22;7459;53.590;10.062;2023-11-19T16:07:13;9.80;99.90
14737;DHT22;7459;53.590;10.062;2023-11-19T16:09:39;9.80;99.90
14737;DHT22;7459;53.590;10.062;2023-11-19T16:12:06;9.80;99.90
14737;DHT22;7459;53.590;10.062;2023-11-19T16:14:33;9.90;99.90
14737;DHT22;7459;53.590;10.062;2023-11-19T16:16:59;9.90;99.90
14737;DHT22;7459;53.590;10.062;2023-11-19T16:19:25;9.90;99.90
14737;DHT22;7459;53.590;10.062;2023-11-19T16:21:52;9.90;99.90
14737;DHT22;7459;53.590;10.062;2023-11-19T16:24:20;9.90;99.90
14737;DHT22;7459;53.590;10.062;2023-11-19T16:26:46;10.00;99.90
14737;DHT22;7459;53.590;10.062;2023-11-19T16:29:12;10.00;99.90
14737;DHT22;7459;53.590;10.062;2023-11-19T16:31:38;10.00;99.90
14737;DHT22;7459;53.590;10.062;2023-11-19T16:34:04;10.00;99.90
14737;DHT22;7459;53.590;10.062;2023-11-19T16:36:32;10.00;99.90
14737;DHT22;7459;53.590;10.062;2023-11-19T16:38:58;10.00;99.90
14737;DHT22;7459;53.590;10.062;2023-11-19T16:41:23;10.00;99.90
14737;DHT22;7459;53.590;10.062;2023-11-19T16:43:49;10.00;99.90
14737;DHT22;7459;53.590;10.062;2023-11-19T16:46:16;10.00;99.90
14737;DHT22;7459;53.590;10.062;2023-11-19T16:48:45;10.00;99.90
14737;DHT22;7459;53.590;10.062;2023-11-19T16:51:14;10.00;99.90
14737;DHT22;7459;53.590;10.062;2023-11-19T16:53:46;10.00;99.90
14737;DHT22;7459;53.590;10.062;2023-11-19T16:56:13;10.00;99.90
14737;DHT22;7459;53.590;10.062;2023-11-19T16:58:40;10.00;99.90
14737;DHT22;7459;53.590;10.062;2023-11-19T17:01:09;10.00;99.90
14737;DHT22;7459;53.590;10.062;2023-11-19T17:03:36;10.00;99.90
14737;DHT22;7459;53.590;10.062;2023-11-19T17:06:03;10.00;99.90
14737;DHT22;7459;53.590;10.062;2023-11-19T17:08:29;9.90;99.90
14737;DHT22;7459;53.590;10.062;2023-11-19T17:11:01;9.90;99.90
14737;DHT22;7459;53.590;10.062;2023-11-19T17:13:29;10.00;99.90
14737;DHT22;7459;53.590;10.062;2023-11-19T17:15:55;9.90;99.90
14737;DHT22;7459;53.590;10.062;2023-11-19T17:18:22;9.90;99.90
14737;DHT22;7459;53.590;10.062;2023-11-19T17:20:49;9.90;99.90
14737;DHT22;7459;53.590;10.062;2023-11-19T17:23:15;9.90;99.90
14737;DHT22;7459;53.590;10.062;2023-11-19T17:25:40;9.90;99.90
14737;DHT22;7459;53.590;10.062;2023-11-19T17:28:09;9.80;99.90
14737;DHT22;7459;53.590;10.062;2023-11-19T17:30:36;9.90;99.90
14737;DHT22;7459;53.590;10.062;2023-11-19T17:33:03;9.90;99.90
14737;DHT22;7459;53.590;10.062;2023-11-19T17:35:32;9.90;99.90
14737;DHT22;7459;53.590;10.062;2023-11-19T17:37:58;9.90;99.90
14737;DHT22;7459;53.590;10.062;2023-11-19T17:40:25;9.80;99.90
14737;DHT22;7459;53.590;10.062;2023-11-19T17:42:54;9.90;99.90
14737;DHT22;7459;53.590;10.062;2023-11-19T17:45:20;9.90;99.90
14737;DHT22;7459;53.590;10.062;2023-11-19T17:47:46;9.80;99.90
14737;DHT22;7459;53.590;10.062;2023-11-19T17:50:11;9.80;99.90
14737;DHT22;7459;53.590;10.062;2023-11-19T17:52:37;9.80;99.90
14737;DHT22;7459;53.590;10.062;2023-11-19T17:55:04;9.70;99.90
14737;DHT22;7459;53.590;10.062;2023-11-19T17:57:33;9.70;99.90
14737;DHT22;7459;53.590;10.062;2023-11-19T17:59:58;9.70;99.90
14737;DHT22;7459;53.590;10.062;2023-11-19T18:02:24;9.70;99.90
14737;DHT22;7459;53.590;10.062;2023-11-19T18:04:50;9.70;99.90
14737;DHT22;7459;53.590;10.062;2023-11-19T18:07:16;9.70;99.90
14737;DHT22;7459;53.590;10.062;2023-11-19T18:09:45;9.70;99.90
14737;DHT22;7459;53.590;10.062;2023-11-19T18:12:11;9.60;99.90
14737;DHT22;7459;53.590;10.062;2023-11-19T18:14:38;9.60;99.90
14737;DHT22;7459;53.590;10.062;2023-11-19T18:17:04;9.70;99.90
14737;DHT22;7459;53.590;10.062;2023-11-19T18:19:30;9.60;99.90
14737;DHT22;7459;53.590;10.062;2023-11-19T18:21:56;9.60;99.90
14737;DHT22;7459;53.590;10.062;2023-11-19T18:24:26;9.60;99.90
14737;DHT22;7459;53.590;10.062;2023-11-19T18:26:52;9.60;99.90
14737;DHT22;7459;53.590;10.062;2023-11-19T18:29:17;9.60;99.90
14737;DHT22;7459;53.590;10.062;2023-11-19T18:31:43;9.60;99.90
14737;DHT22;7459;53.590;10.062;2023-11-19T18:34:09;9.60;99.90
14737;DHT22;7459;53.590;10.062;2023-11-19T18:36:36;9.60;99.90
14737;DHT22;7459;53.590;10.062;2023-11-19T18:39:06;9.60;99.90
14737;DHT22;7459;53.590;10.062;2023-11-19T18:41:35;9.70;99.90
14737;DHT22;7459;53.590;10.062;2023-11-19T18:44:01;9.70;99.90
14737;DHT22;7459;53.590;10.062;2023-11-19T18:46:28;9.70;99.90
14737;DHT22;7459;53.590;10.062;2023-11-19T18:48:54;9.70;99.90
14737;DHT22;7459;53.590;10.062;2023-11-19T18:51:20;9.70;99.90
14737;DHT22;7459;53.590;10.062;2023-11-19T18:53:46;9.70;99.90
14737;DHT22;7459;53.590;10.062;2023-11-19T18:56:12;9.70;99.90
14737;DHT22;7459;53.590;10.062;2023-11-19T18:58:38;9.70;99.90
14737;DHT22;7459;53.590;10.062;2023-11-19T19:01:04;9.70;99.90
14737;DHT22;7459;53.590;10.062;2023-11-19T19:03:30;9.80;99.90
14737;DHT22;7459;53.590;10.062;2023-11-19T19:05:58;9.80;99.90
14737;DHT22;7459;53.590;10.062;2023-11-19T19:08:24;9.80;99.90
14737;DHT22;7459;53.590;10.062;2023-11-19T19:10:50;9.80;99.90
14737;DHT22;7459;53.590;10.062;2023-11-19T19:13:15;9.80;99.90
14737;DHT22;7459;53.590;10.062;2023-11-19T19:15:41;9.80;99.90
14737;DHT22;7459;53.590;10.062;2023-11-19T19:18:07;9.80;99.90
14737;DHT22;7459;53.590;10.062;2023-11-19T19:20:33;9.80;99.90
14737;DHT22;7459;53.590;10.062;2023-11-19T19:22:59;9.80;99.90
14737;DHT22;7459;53.590;10.062;2023-11-19T19:25:25;9.80;99.90
14737;DHT22;7459;53.590;10.062;2023-11-19T19:27:55;9.80;99.90
14737;DHT22;7459;53.590;10.062;2023-11-19T19:30:21;9.90;99.90
14737;DHT22;7459;53.590;10.062;2023-11-19T19:32:47;9.90;99.90
14737;DHT22;7459;53.590;10.062;2023-11-19T19:35:14;9.90;99.90
14737;DHT22;7459;53.590;10.062;2023-11-19T19:37:40;9.90;99.90
14737;DHT22;7459;53.590;10.062;2023-11-19T19:40:06;9.90;99.90
14737;DHT22;7459;53.590;10.062;2023-11-19T19:42:32;9.90;99.90
14737;DHT22;7459;53.590;10.062;2023-11-19T19:44:58;9.90;99.90
14737;DHT22;7459;53.590;10.062;2023-11-19T19:47:25;9.90;99.90
14737;DHT22;7459;53.590;10.062;2023-11-19T19:49:50;9.90;99.90
14737;DHT22;7459;53.590;10.062;2023-11-19T19:52:16;9.90;99.90
14737;DHT22;7459;53.590;10.062;2023-11-19T19:54:42;9.90;99.90
14737;DHT22;7459;53.590;10.062;2023-11-19T19:57:08;9.90;99.90
14737;DHT22;7459;53.590;10.062;2023-11-19T19:59:33;9.90;99.90
14737;DHT22;7459;53.590;10.062;2023-11-19T20:02:00;9.90;99.90
14737;DHT22;7459;53.590;10.062;2023-11-19T20:04:27;9.90;99.90
14737;DHT22;7459;53.590;10.062;2023-11-19T20:06:53;9.90;99.90
14737;DHT22;7459;53.590;10.062;2023-11-19T20:09:19;9.90;99.90
14737;DHT22;7459;53.590;10.062;2023-11-19T20:11:44;9.90;99.90
14737;DHT22;7459;53.590;10.062;2023-11-19T20:14:13;9.90;99.90
14737;DHT22;7459;53.590;10.062;2023-11-19T20:16:39;9.90;99.90
14737;DHT22;7459;53.590;10.062;2023-11-19T20:19:05;9.90;99.90
14737;DHT22;7459;53.590;10.062;2023-11-19T20:21:31;9.90;99.90
14737;DHT22;7459;53.590;10.062;2023-11-19T20:23:57;9.90;99.90
14737;DHT22;7459;53.590;10.062;2023-11-19T20:26:23;9.90;99.90
14737;DHT22;7459;53.590;10.062;2023-11-19T20:28:49;9.90;99.90
14737;DHT22;7459;53.590;10.062;2023-11-19T20:31:15;9.90;99.90
14737;DHT22;7459;53.590;10.062;2023-11-19T20:33:43;9.90;99.90
14737;DHT22;7459;53.590;10.062;2023-11-19T20:36:09;9.90;99.90
14737;DHT22;7459;53.590;10.062;2023-11-19T20:38:35;9.90;99.90
14737;DHT22;7459;53.590;10.062;2023-11-19T20:41:02;9.90;99.90
14737;DHT22;7459;53.590;10.062;2023-11-19T20:43:28;9.90;99.90
14737;DHT22;7459;53.590;10.062;2023-11-19T20:45:54;9.90;99.90
14737;DHT22;7459;53.590;10.062;2023-11-19T20:48:20;9.90;99.90
14737;DHT22;7459;53.590;10.062;2023-11-19T20:50:46;9.90;99.90
14737;DHT22;7459;53.590;10.062;2023-11-19T20:53:13;9.90;99.90
14737;DHT22;7459;53.590;10.062;2023-11-19T20:55:38;9.90;99.90
14737;DHT22;7459;53.590;10.062;2023-11-19T20:58:04;9.90;99.90
14737;DHT22;7459;53.590;10.062;2023-11-19T21:00:33;9.90;99.90
14737;DHT22;7459;53.590;10.062;2023-11-19T21:02:59;9.90;99.90
14737;DHT22;7459;53.590;10.062;2023-11-19T21:05:25;9.90;99.90
14737;DHT22;7459;53.590;10.062;2023-11-19T21:07:51;9.90;99.90
14737;DHT22;7459;53.590;10.062;2023-11-19T21:10:16;10.00;99.90
14737;DHT22;7459;53.590;10.062;2023-11-19T21:12:43;10.00;99.90
14737;DHT22;7459;53.590;10.062;2023-11-19T21:15:09;10.00;99.90
14737;DHT22;7459;53.590;10.062;2023-11-19T21:17:35;9.90;99.90
14737;DHT22;7459;53.590;10.062;2023-11-19T21:20:00;10.00;99.90
14737;DHT22;7459;53.590;10.062;2023-11-19T21:22:26;10.00;99.90
14737;DHT22;7459;53.590;10.062;2023-11-19T21:24:52;9.90;99.90
14737;DHT22;7459;53.590;10.062;2023-11-19T21:27:18;10.00;99.90
14737;DHT22;7459;53.590;10.062;2023-11-19T21:29:44;10.00;99.90
14737;DHT22;7459;53.590;10.062;2023-11-19T21:32:10;10.00;99.90
14737;DHT22;7459;53.590;10.062;2023-11-19T21:34:36;10.00;99.90
14737;DHT22;7459;53.590;10.062;2023-11-19T21:37:02;10.00;99.90
14737;DHT22;7459;53.590;10.062;2023-11-19T21:39:29;10.00;99.90
14737;DHT22;7459;53.590;10.062;2023-11-19T21:41:55;10.00;99.90
14737;DHT22;7459;53.590;10.062;2023-11-19T21:44:21;10.00;99.90
14737;DHT22;7459;53.590;10.062;2023-11-19T21:46:47;10.00;99.90
14737;DHT22;7459;53.590;10.062;2023-11-19T21:49:13;10.00;99.90
14737;DHT22;7459;53.590;10.062;2023-11-19T21:51:40;10.00;99.90
14737;DHT22;7459;53.590;10.062;2023-11-19T21:54:06;10.00;99.90
14737;DHT22;7459;53.590;10.062;2023-11-19T21:56:32;10.00;99.90
14737;DHT22;7459;53.590;10.062;2023-11-19T21:58:57;10.00;99.90
14737;DHT22;7459;53.590;10.062;2023-11-19T22:01:23;10.00;99.90
14737;DHT22;7459;53.590;10.062;2023-11-19T22:03:52;10.00;99.90
14737;DHT22;7459;53.590;10.062;2023-11-19T22:06:18;10.00;99.90
14737;DHT22;7459;53.590;10.062;2023-11-19T22:08:45;10.00;99.90
14737;DHT22;7459;53.590;10.062;2023-11-19T22:11:11;10.00;99.90
14737;DHT22;7459;53.590;10.062;2023-11-19T22:13:37;10.00;99.90
14737;DHT22;7459;53.590;10.062;2023-11-19T22:16:04;10.00;99.90
14737;DHT22;7459;53.590;10.062;2023-11-19T22:18:30;10.00;99.90
14737;DHT22;7459;53.590;10.062;2023-11-19T22:20:56;10.00;99.90
14737;DHT22;7459;53.590;10.062;2023-11-19T22:23:22;10.00;99.90
14737;DHT22;7459;53.590;10.062;2023-11-19T22:25:47;10.00;99.90
14737;DHT22;7459;53.590;10.062;2023-11-19T22:28:13;10.00;99.90
14737;DHT22;7459;53.590;10.062;2023-11-19T22:30:40;10.00;99.90
14737;DHT22;7459;53.590;10.062;2023-11-19T22:33:06;10.00;99.90
14737;DHT22;7459;53.590;10.062;2023-11-19T22:35:35;10.00;99.90
14737;DHT22;7459;53.590;10.062;2023-11-19T22:38:01;10.00;99.90
14737;DHT22;7459;53.590;10.062;2023-11-19T22:40:27;10.00;99.90
14737;DHT22;7459;53.590;10.062;2023-11-19T22:42:53;10.00;99.90
14737;DHT22;7459;53.590;10.062;2023-11-19T22:45:19;10.00;99.90
14737;DHT22;7459;53.590;10.062;2023-11-19T22:47:45;10.00;99.90
14737;DHT22;7459;53.590;10.062;2023-11-19T22:50:11;10.00;99.90
14737;DHT22;7459;53.590;10.062;2023-11-19T22:52:37;10.00;99.90
14737;DHT22;7459;53.590;10.062;2023-11-19T22:55:03;10.10;99.90
14737;DHT22;7459;53.590;10.062;2023-11-19T22:57:31;10.00;99.90
14737;DHT22;7459;53.590;10.062;2023-11-19T22:59:57;10.00;99.90
14737;DHT22;7459;53.590;10.062;2023-11-19T23:02:23;10.00;99.90
14737;DHT22;7459;53.590;10.062;2023-11-19T23:04:49;10.00;99.90
14737;DHT22;7459;53.590;10.062;2023-11-19T23:07:16;10.00;99.90
14737;DHT22;7459;53.590;10.062;2023-11-19T23:09:41;10.00;99.90
14737;DHT22;7459;53.590;10.062;2023-11-19T23:12:08;10.10;99.90
14737;DHT22;7459;53.590;10.062;2023-11-19T23:14:36;10.10;99.90
14737;DHT22;7459;53.590;10.062;2023-11-19T23:17:02;10.10;99.90
14737;DHT22;7459;53.590;10.062;2023-11-19T23:19:32;10.10;99.90
14737;DHT22;7459;53.590;10.062;2023-11-19T23:21:58;10.10;99.90
14737;DHT22;7459;53.590;10.062;2023-11-19T23:24:24;10.10;99.90
14737;DHT22;7459;53.590;10.062;2023-11-19T23:26:49;10.10;99.90
14737;DHT22;7459;53.590;10.062;2023-11-19T23:29:15;10.10;99.90
14737;DHT22;7459;53.590;10.062;2023-11-19T23:31:41;10.10;99.90
14737;DHT22;7459;53.590;10.062;2023-11-19T23:34:06;10.10;99.90
14737;DHT22;7459;53.590;10.062;2023-11-19T23:36:32;10.10;99.90
14737;DHT22;7459;53.590;10.062;2023-11-19T23:38:58;10.10;99.90
14737;DHT22;7459;53.590;10.062;2023-11-19T23:41:23;10.10;99.90
14737;DHT22;7459;53.590;10.062;2023-11-19T23:43:49;10.20;99.90
14737;DHT22;7459;53.590;10.062;2023-11-19T23:46:15;10.20;99.90
14737;DHT22;7459;53.590;10.062;2023-11-19T23:48:41;10.20;99.90
14737;DHT22;7459;53.590;10.062;2023-11-19T23:51:07;10.20;99.90
14737;DHT22;7459;53.590;10.062;2023-11-19T23:53:34;10.20;99.90
14737;DHT22;7459;53.590;10.062;2023-11-19T23:56:00;10.10;99.90
14737;DHT22;7459;53.590;10.062;2023-11-19T23:58:26;10.10;99.90
